sensor_id;sensor_type;location;lat;lon;timestamp;P1;durP1;ratioP1;P2;durP2;ratioP2
789;SDS011;378;48.844;9.156;2023-02-14T00:01:38;54.33;;;20.23;;
789;SDS011;378;48.844;9.156;2023-02-14T00:04:05;59.25;;;22.05;;
789;SDS011;378;48.844;9.156;2023-02-14T00:06:32;51.17;;;19.07;;
789;SDS011;378;48.844;9.156;2023-02-14T00:09:02;45.77;;;17.97;;
789;SDS011;378;48.844;9.156;2023-02-14T00:11:30;56.17;;;18.67;;
789;SDS011;378;48.844;9.156;2023-02-14T00:13:59;47.27;;;17.77;;
789;SDS011;378;48.844;9.156;2023-02-14T00:16:43;63.28;;;25.52;;
789;SDS011;378;48.844;9.156;2023-02-14T00:19:10;50.20;;;18.63;;
789;SDS011;378;48.844;9.156;2023-02-14T00:21:38;52.73;;;18.97;;
789;SDS011;378;48.844;9.156;2023-02-14T00:24:06;50.10;;;19.40;;
789;SDS011;378;48.844;9.156;2023-02-14T00:26:34;49.90;;;18.97;;
789;SDS011;378;48.844;9.156;2023-02-14T00:29:04;47.57;;;18.27;;
789;SDS011;378;48.844;9.156;2023-02-14T00:31:31;52.23;;;19.00;;
789;SDS011;378;48.844;9.156;2023-02-14T00:33:58;48.40;;;18.33;;
789;SDS011;378;48.844;9.156;2023-02-14T00:36:25;58.83;;;22.97;;
789;SDS011;378;48.844;9.156;2023-02-14T00:38:52;58.37;;;20.30;;
789;SDS011;378;48.844;9.156;2023-02-14T00:41:19;45.90;;;18.23;;
789;SDS011;378;48.844;9.156;2023-02-14T00:43:46;49.57;;;18.70;;
789;SDS011;378;48.844;9.156;2023-02-14T00:46:16;51.43;;;18.77;;
789;SDS011;378;48.844;9.156;2023-02-14T00:48:44;63.95;;;25.27;;
789;SDS011;378;48.844;9.156;2023-02-14T00:51:11;57.20;;;20.47;;
789;SDS011;378;48.844;9.156;2023-02-14T00:53:39;53.10;;;19.30;;
789;SDS011;378;48.844;9.156;2023-02-14T00:56:06;51.03;;;19.40;;
789;SDS011;378;48.844;9.156;2023-02-14T00:58:33;52.40;;;19.17;;
789;SDS011;378;48.844;9.156;2023-02-14T01:01:00;54.43;;;19.10;;
789;SDS011;378;48.844;9.156;2023-02-14T01:03:28;55.93;;;18.60;;
789;SDS011;378;48.844;9.156;2023-02-14T01:05:55;49.33;;;18.60;;
789;SDS011;378;48.844;9.156;2023-02-14T01:08:22;67.35;;;26.23;;
789;SDS011;378;48.844;9.156;2023-02-14T01:10:50;53.70;;;21.13;;
789;SDS011;378;48.844;9.156;2023-02-14T01:13:17;53.30;;;20.20;;
789;SDS011;378;48.844;9.156;2023-02-14T01:15:45;49.97;;;18.40;;
789;SDS011;378;48.844;9.156;2023-02-14T01:18:13;55.23;;;18.70;;
789;SDS011;378;48.844;9.156;2023-02-14T01:20:42;54.40;;;19.50;;
789;SDS011;378;48.844;9.156;2023-02-14T01:23:09;57.33;;;19.33;;
789;SDS011;378;48.844;9.156;2023-02-14T01:25:37;57.50;;;19.33;;
789;SDS011;378;48.844;9.156;2023-02-14T01:28:04;54.50;;;19.13;;
789;SDS011;378;48.844;9.156;2023-02-14T01:30:31;55.17;;;19.13;;
789;SDS011;378;48.844;9.156;2023-02-14T01:32:58;54.00;;;19.23;;
789;SDS011;378;48.844;9.156;2023-02-14T01:35:25;54.67;;;18.47;;
789;SDS011;378;48.844;9.156;2023-02-14T01:37:53;53.37;;;19.50;;
789;SDS011;378;48.844;9.156;2023-02-14T01:40:20;56.33;;;19.47;;
789;SDS011;378;48.844;9.156;2023-02-14T01:42:47;54.47;;;19.30;;
789;SDS011;378;48.844;9.156;2023-02-14T01:45:15;66.50;;;21.33;;
789;SDS011;378;48.844;9.156;2023-02-14T01:47:43;56.90;;;19.17;;
789;SDS011;378;48.844;9.156;2023-02-14T01:50:13;52.37;;;19.93;;
789;SDS011;378;48.844;9.156;2023-02-14T01:52:47;54.07;;;19.23;;
789;SDS011;378;48.844;9.156;2023-02-14T01:55:18;58.30;;;19.50;;
789;SDS011;378;48.844;9.156;2023-02-14T01:57:47;51.97;;;18.60;;
789;SDS011;378;48.844;9.156;2023-02-14T02:00:16;59.90;;;19.87;;
789;SDS011;378;48.844;9.156;2023-02-14T02:03:01;54.77;;;18.87;;
789;SDS011;378;48.844;9.156;2023-02-14T02:05:30;53.13;;;19.00;;
789;SDS011;378;48.844;9.156;2023-02-14T02:07:58;49.90;;;18.53;;
789;SDS011;378;48.844;9.156;2023-02-14T02:10:27;67.93;;;24.95;;
789;SDS011;378;48.844;9.156;2023-02-14T02:12:54;63.37;;;22.53;;
789;SDS011;378;48.844;9.156;2023-02-14T02:15:25;56.70;;;20.67;;
789;SDS011;378;48.844;9.156;2023-02-14T02:17:55;61.00;;;21.17;;
789;SDS011;378;48.844;9.156;2023-02-14T02:20:40;58.07;;;19.77;;
789;SDS011;378;48.844;9.156;2023-02-14T02:23:57;54.90;;;19.07;;
789;SDS011;378;48.844;9.156;2023-02-14T02:27:01;54.23;;;19.73;;
789;SDS011;378;48.844;9.156;2023-02-14T02:29:57;56.13;;;19.80;;
789;SDS011;378;48.844;9.156;2023-02-14T02:32:53;58.73;;;19.80;;
789;SDS011;378;48.844;9.156;2023-02-14T02:35:38;62.57;;;20.50;;
789;SDS011;378;48.844;9.156;2023-02-14T02:38:18;52.63;;;18.70;;
789;SDS011;378;48.844;9.156;2023-02-14T02:41:01;53.27;;;19.00;;
789;SDS011;378;48.844;9.156;2023-02-14T02:43:36;59.67;;;20.47;;
789;SDS011;378;48.844;9.156;2023-02-14T02:46:10;56.53;;;20.10;;
789;SDS011;378;48.844;9.156;2023-02-14T02:49:05;59.73;;;19.40;;
789;SDS011;378;48.844;9.156;2023-02-14T02:51:41;53.07;;;18.73;;
789;SDS011;378;48.844;9.156;2023-02-14T02:54:32;53.10;;;18.73;;
789;SDS011;378;48.844;9.156;2023-02-14T02:57:04;63.10;;;20.07;;
789;SDS011;378;48.844;9.156;2023-02-14T02:59:37;51.50;;;19.23;;
789;SDS011;378;48.844;9.156;2023-02-14T03:02:08;54.67;;;19.40;;
789;SDS011;378;48.844;9.156;2023-02-14T03:04:39;62.70;;;20.60;;
789;SDS011;378;48.844;9.156;2023-02-14T03:07:19;62.27;;;20.97;;
789;SDS011;378;48.844;9.156;2023-02-14T03:10:03;54.87;;;20.20;;
789;SDS011;378;48.844;9.156;2023-02-14T03:18:43;62.13;;;22.63;;
789;SDS011;378;48.844;9.156;2023-02-14T03:22:05;63.93;;;21.27;;
789;SDS011;378;48.844;9.156;2023-02-14T03:24:41;52.13;;;20.80;;
789;SDS011;378;48.844;9.156;2023-02-14T03:27:14;60.00;;;19.90;;
789;SDS011;378;48.844;9.156;2023-02-14T03:29:48;53.67;;;19.93;;
789;SDS011;378;48.844;9.156;2023-02-14T03:32:22;56.60;;;19.77;;
789;SDS011;378;48.844;9.156;2023-02-14T03:34:56;65.97;;;21.60;;
789;SDS011;378;48.844;9.156;2023-02-14T03:37:28;61.07;;;21.33;;
789;SDS011;378;48.844;9.156;2023-02-14T03:40:02;62.20;;;20.57;;
789;SDS011;378;48.844;9.156;2023-02-14T03:42:34;60.33;;;20.80;;
789;SDS011;378;48.844;9.156;2023-02-14T03:45:06;70.22;;;23.60;;
789;SDS011;378;48.844;9.156;2023-02-14T03:47:38;64.33;;;21.00;;
789;SDS011;378;48.844;9.156;2023-02-14T03:50:08;64.20;;;20.60;;
789;SDS011;378;48.844;9.156;2023-02-14T03:52:37;58.37;;;20.63;;
789;SDS011;378;48.844;9.156;2023-02-14T03:55:07;62.57;;;21.27;;
789;SDS011;378;48.844;9.156;2023-02-14T03:57:36;61.80;;;22.30;;
789;SDS011;378;48.844;9.156;2023-02-14T04:00:09;59.97;;;20.90;;
789;SDS011;378;48.844;9.156;2023-02-14T04:02:38;60.53;;;20.57;;
789;SDS011;378;48.844;9.156;2023-02-14T04:05:10;57.57;;;20.23;;
789;SDS011;378;48.844;9.156;2023-02-14T04:07:44;56.33;;;20.07;;
789;SDS011;378;48.844;9.156;2023-02-14T04:10:14;60.27;;;21.23;;
789;SDS011;378;48.844;9.156;2023-02-14T04:12:41;53.60;;;19.87;;
789;SDS011;378;48.844;9.156;2023-02-14T04:15:09;59.47;;;19.77;;
789;SDS011;378;48.844;9.156;2023-02-14T04:17:37;58.10;;;21.00;;
789;SDS011;378;48.844;9.156;2023-02-14T04:20:22;53.77;;;19.60;;
789;SDS011;378;48.844;9.156;2023-02-14T04:22:49;60.17;;;20.07;;
789;SDS011;378;48.844;9.156;2023-02-14T04:25:17;56.83;;;20.53;;
789;SDS011;378;48.844;9.156;2023-02-14T04:27:45;54.23;;;18.77;;
789;SDS011;378;48.844;9.156;2023-02-14T04:30:13;57.27;;;19.33;;
789;SDS011;378;48.844;9.156;2023-02-14T04:32:42;54.20;;;18.87;;
789;SDS011;378;48.844;9.156;2023-02-14T04:35:09;53.20;;;18.83;;
789;SDS011;378;48.844;9.156;2023-02-14T04:37:36;60.13;;;20.40;;
789;SDS011;378;48.844;9.156;2023-02-14T04:40:03;53.20;;;20.20;;
789;SDS011;378;48.844;9.156;2023-02-14T04:42:32;54.23;;;18.93;;
789;SDS011;378;48.844;9.156;2023-02-14T04:44:59;53.13;;;20.00;;
789;SDS011;378;48.844;9.156;2023-02-14T04:47:26;57.00;;;20.20;;
789;SDS011;378;48.844;9.156;2023-02-14T04:49:53;60.90;;;21.07;;
789;SDS011;378;48.844;9.156;2023-02-14T04:52:20;70.60;;;27.05;;
789;SDS011;378;48.844;9.156;2023-02-14T04:54:46;63.17;;;21.77;;
789;SDS011;378;48.844;9.156;2023-02-14T04:57:13;56.17;;;19.63;;
789;SDS011;378;48.844;9.156;2023-02-14T04:59:42;54.87;;;20.23;;
789;SDS011;378;48.844;9.156;2023-02-14T05:02:08;55.43;;;20.57;;
789;SDS011;378;48.844;9.156;2023-02-14T05:04:35;52.77;;;19.13;;
789;SDS011;378;48.844;9.156;2023-02-14T05:07:02;55.90;;;19.63;;
789;SDS011;378;48.844;9.156;2023-02-14T05:09:29;63.60;;;21.20;;
789;SDS011;378;48.844;9.156;2023-02-14T05:11:56;58.90;;;20.87;;
789;SDS011;378;48.844;9.156;2023-02-14T05:14:23;53.50;;;19.23;;
789;SDS011;378;48.844;9.156;2023-02-14T05:16:51;59.80;;;20.30;;
789;SDS011;378;48.844;9.156;2023-02-14T05:19:18;59.10;;;19.50;;
789;SDS011;378;48.844;9.156;2023-02-14T05:21:45;55.53;;;19.40;;
789;SDS011;378;48.844;9.156;2023-02-14T05:24:11;59.20;;;20.33;;
789;SDS011;378;48.844;9.156;2023-02-14T05:26:38;61.83;;;20.60;;
789;SDS011;378;48.844;9.156;2023-02-14T05:29:05;60.30;;;20.47;;
789;SDS011;378;48.844;9.156;2023-02-14T05:31:32;59.73;;;20.57;;
789;SDS011;378;48.844;9.156;2023-02-14T05:34:00;57.93;;;19.37;;
789;SDS011;378;48.844;9.156;2023-02-14T05:36:27;59.97;;;20.40;;
789;SDS011;378;48.844;9.156;2023-02-14T05:38:54;58.63;;;20.23;;
789;SDS011;378;48.844;9.156;2023-02-14T05:41:21;62.67;;;21.83;;
789;SDS011;378;48.844;9.156;2023-02-14T05:43:47;64.60;;;21.73;;
789;SDS011;378;48.844;9.156;2023-02-14T05:46:14;63.37;;;21.17;;
789;SDS011;378;48.844;9.156;2023-02-14T05:48:41;60.33;;;21.37;;
789;SDS011;378;48.844;9.156;2023-02-14T05:51:09;59.27;;;20.77;;
789;SDS011;378;48.844;9.156;2023-02-14T05:53:37;64.87;;;21.30;;
789;SDS011;378;48.844;9.156;2023-02-14T05:56:04;69.50;;;23.83;;
789;SDS011;378;48.844;9.156;2023-02-14T05:58:31;57.17;;;20.87;;
789;SDS011;378;48.844;9.156;2023-02-14T06:00:59;60.80;;;21.57;;
789;SDS011;378;48.844;9.156;2023-02-14T06:03:26;63.87;;;21.30;;
789;SDS011;378;48.844;9.156;2023-02-14T06:05:52;60.57;;;20.73;;
789;SDS011;378;48.844;9.156;2023-02-14T06:08:21;61.43;;;19.50;;
789;SDS011;378;48.844;9.156;2023-02-14T06:10:47;52.23;;;19.17;;
789;SDS011;378;48.844;9.156;2023-02-14T06:13:14;59.57;;;20.50;;
789;SDS011;378;48.844;9.156;2023-02-14T06:15:41;54.80;;;19.40;;
789;SDS011;378;48.844;9.156;2023-02-14T06:18:08;54.60;;;19.53;;
789;SDS011;378;48.844;9.156;2023-02-14T06:20:35;54.77;;;18.97;;
789;SDS011;378;48.844;9.156;2023-02-14T06:23:02;56.53;;;19.83;;
789;SDS011;378;48.844;9.156;2023-02-14T06:25:30;54.27;;;19.53;;
789;SDS011;378;48.844;9.156;2023-02-14T06:27:57;51.13;;;18.57;;
789;SDS011;378;48.844;9.156;2023-02-14T06:30:25;54.97;;;18.73;;
789;SDS011;378;48.844;9.156;2023-02-14T06:32:52;48.00;;;18.73;;
789;SDS011;378;48.844;9.156;2023-02-14T06:35:19;62.60;;;21.23;;
789;SDS011;378;48.844;9.156;2023-02-14T06:37:46;48.27;;;18.80;;
789;SDS011;378;48.844;9.156;2023-02-14T06:40:13;69.13;;;26.63;;
789;SDS011;378;48.844;9.156;2023-02-14T06:42:41;62.97;;;22.03;;
789;SDS011;378;48.844;9.156;2023-02-14T06:45:08;49.30;;;19.17;;
789;SDS011;378;48.844;9.156;2023-02-14T06:47:36;48.73;;;18.43;;
789;SDS011;378;48.844;9.156;2023-02-14T06:50:03;52.03;;;18.43;;
789;SDS011;378;48.844;9.156;2023-02-14T06:52:31;50.13;;;18.40;;
789;SDS011;378;48.844;9.156;2023-02-14T06:54:58;49.63;;;18.23;;
789;SDS011;378;48.844;9.156;2023-02-14T06:57:24;46.87;;;18.10;;
789;SDS011;378;48.844;9.156;2023-02-14T06:59:53;48.20;;;17.33;;
789;SDS011;378;48.844;9.156;2023-02-14T07:02:20;47.90;;;18.20;;
789;SDS011;378;48.844;9.156;2023-02-14T07:04:46;45.47;;;18.03;;
789;SDS011;378;48.844;9.156;2023-02-14T07:07:13;55.73;;;18.50;;
789;SDS011;378;48.844;9.156;2023-02-14T07:09:40;49.60;;;18.70;;
789;SDS011;378;48.844;9.156;2023-02-14T07:12:07;48.90;;;18.43;;
789;SDS011;378;48.844;9.156;2023-02-14T07:14:34;60.50;;;26.02;;
789;SDS011;378;48.844;9.156;2023-02-14T07:17:02;55.90;;;20.83;;
789;SDS011;378;48.844;9.156;2023-02-14T07:19:29;53.43;;;19.50;;
789;SDS011;378;48.844;9.156;2023-02-14T07:21:56;48.93;;;19.43;;
789;SDS011;378;48.844;9.156;2023-02-14T07:24:23;46.97;;;18.10;;
789;SDS011;378;48.844;9.156;2023-02-14T07:26:50;52.60;;;18.33;;
789;SDS011;378;48.844;9.156;2023-02-14T07:29:17;55.30;;;19.67;;
789;SDS011;378;48.844;9.156;2023-02-14T07:31:44;47.77;;;19.50;;
789;SDS011;378;48.844;9.156;2023-02-14T07:34:12;56.67;;;22.88;;
789;SDS011;378;48.844;9.156;2023-02-14T07:36:39;48.70;;;20.17;;
789;SDS011;378;48.844;9.156;2023-02-14T07:39:08;51.30;;;19.50;;
789;SDS011;378;48.844;9.156;2023-02-14T07:41:35;50.17;;;19.03;;
789;SDS011;378;48.844;9.156;2023-02-14T07:44:02;50.40;;;18.90;;
789;SDS011;378;48.844;9.156;2023-02-14T07:46:29;46.90;;;19.23;;
789;SDS011;378;48.844;9.156;2023-02-14T07:48:56;55.13;;;19.80;;
789;SDS011;378;48.844;9.156;2023-02-14T07:51:24;53.53;;;19.03;;
789;SDS011;378;48.844;9.156;2023-02-14T07:53:51;43.90;;;19.03;;
789;SDS011;378;48.844;9.156;2023-02-14T07:56:18;51.60;;;19.20;;
789;SDS011;378;48.844;9.156;2023-02-14T07:58:45;46.17;;;18.90;;
789;SDS011;378;48.844;9.156;2023-02-14T08:01:13;50.67;;;18.60;;
789;SDS011;378;48.844;9.156;2023-02-14T08:03:40;54.73;;;18.93;;
789;SDS011;378;48.844;9.156;2023-02-14T08:06:08;43.33;;;18.13;;
789;SDS011;378;48.844;9.156;2023-02-14T08:08:36;46.47;;;17.67;;
789;SDS011;378;48.844;9.156;2023-02-14T08:11:03;47.67;;;19.00;;
789;SDS011;378;48.844;9.156;2023-02-14T08:13:30;47.57;;;17.17;;
789;SDS011;378;48.844;9.156;2023-02-14T08:15:56;41.83;;;16.60;;
789;SDS011;378;48.844;9.156;2023-02-14T08:18:34;41.13;;;19.45;;
789;SDS011;378;48.844;9.156;2023-02-14T08:21:03;37.42;;;18.08;;
789;SDS011;378;48.844;9.156;2023-02-14T08:23:31;35.72;;;16.27;;
789;SDS011;378;48.844;9.156;2023-02-14T08:25:59;30.65;;;15.10;;
789;SDS011;378;48.844;9.156;2023-02-14T08:28:27;35.35;;;16.85;;
789;SDS011;378;48.844;9.156;2023-02-14T08:30:54;33.97;;;16.50;;
789;SDS011;378;48.844;9.156;2023-02-14T08:33:21;36.50;;;16.48;;
789;SDS011;378;48.844;9.156;2023-02-14T08:35:49;31.10;;;15.52;;
789;SDS011;378;48.844;9.156;2023-02-14T08:38:16;35.45;;;15.68;;
789;SDS011;378;48.844;9.156;2023-02-14T08:40:43;35.30;;;16.13;;
789;SDS011;378;48.844;9.156;2023-02-14T08:43:11;31.27;;;15.85;;
789;SDS011;378;48.844;9.156;2023-02-14T08:45:39;32.40;;;15.40;;
789;SDS011;378;48.844;9.156;2023-02-14T08:48:07;34.17;;;15.90;;
789;SDS011;378;48.844;9.156;2023-02-14T08:50:36;30.40;;;15.63;;
789;SDS011;378;48.844;9.156;2023-02-14T08:53:05;32.55;;;15.00;;
789;SDS011;378;48.844;9.156;2023-02-14T08:55:32;29.85;;;15.75;;
789;SDS011;378;48.844;9.156;2023-02-14T08:57:59;30.63;;;16.00;;
789;SDS011;378;48.844;9.156;2023-02-14T09:00:28;31.65;;;15.98;;
789;SDS011;378;48.844;9.156;2023-02-14T09:02:54;33.38;;;16.83;;
789;SDS011;378;48.844;9.156;2023-02-14T09:05:21;32.15;;;16.20;;
789;SDS011;378;48.844;9.156;2023-02-14T09:07:48;29.83;;;15.45;;
789;SDS011;378;48.844;9.156;2023-02-14T09:10:15;34.17;;;16.10;;
789;SDS011;378;48.844;9.156;2023-02-14T09:12:43;38.38;;;16.38;;
789;SDS011;378;48.844;9.156;2023-02-14T09:15:10;33.00;;;16.35;;
789;SDS011;378;48.844;9.156;2023-02-14T09:17:39;32.80;;;16.42;;
789;SDS011;378;48.844;9.156;2023-02-14T09:20:08;31.35;;;16.13;;
789;SDS011;378;48.844;9.156;2023-02-14T09:22:38;30.95;;;15.90;;
789;SDS011;378;48.844;9.156;2023-02-14T09:25:05;34.05;;;16.73;;
789;SDS011;378;48.844;9.156;2023-02-14T09:27:33;31.08;;;16.17;;
789;SDS011;378;48.844;9.156;2023-02-14T09:30:00;29.05;;;16.30;;
789;SDS011;378;48.844;9.156;2023-02-14T09:32:27;28.73;;;16.30;;
789;SDS011;378;48.844;9.156;2023-02-14T09:34:55;29.40;;;15.98;;
789;SDS011;378;48.844;9.156;2023-02-14T09:37:23;29.23;;;16.13;;
789;SDS011;378;48.844;9.156;2023-02-14T09:39:50;29.33;;;15.75;;
789;SDS011;378;48.844;9.156;2023-02-14T09:42:29;30.20;;;16.50;;
789;SDS011;378;48.844;9.156;2023-02-14T09:45:07;27.85;;;15.73;;
789;SDS011;378;48.844;9.156;2023-02-14T09:47:39;30.65;;;16.33;;
789;SDS011;378;48.844;9.156;2023-02-14T09:50:12;35.83;;;16.98;;
789;SDS011;378;48.844;9.156;2023-02-14T09:52:44;28.60;;;16.02;;
789;SDS011;378;48.844;9.156;2023-02-14T09:55:14;29.13;;;15.82;;
789;SDS011;378;48.844;9.156;2023-02-14T09:57:43;30.20;;;16.27;;
789;SDS011;378;48.844;9.156;2023-02-14T10:00:21;27.30;;;15.82;;
789;SDS011;378;48.844;9.156;2023-02-14T10:02:56;28.75;;;16.13;;
789;SDS011;378;48.844;9.156;2023-02-14T10:05:29;31.08;;;15.95;;
789;SDS011;378;48.844;9.156;2023-02-14T10:08:03;32.42;;;16.10;;
789;SDS011;378;48.844;9.156;2023-02-14T10:10:41;29.60;;;15.88;;
789;SDS011;378;48.844;9.156;2023-02-14T10:13:09;29.27;;;16.63;;
789;SDS011;378;48.844;9.156;2023-02-14T10:15:42;31.15;;;16.27;;
789;SDS011;378;48.844;9.156;2023-02-14T10:18:12;27.55;;;16.30;;
789;SDS011;378;48.844;9.156;2023-02-14T10:20:45;36.47;;;16.67;;
789;SDS011;378;48.844;9.156;2023-02-14T10:23:20;34.30;;;17.52;;
789;SDS011;378;48.844;9.156;2023-02-14T10:25:53;34.45;;;16.95;;
789;SDS011;378;48.844;9.156;2023-02-14T10:28:24;32.47;;;16.00;;
789;SDS011;378;48.844;9.156;2023-02-14T10:30:58;31.83;;;15.60;;
789;SDS011;378;48.844;9.156;2023-02-14T10:33:36;30.42;;;15.80;;
789;SDS011;378;48.844;9.156;2023-02-14T10:36:07;32.13;;;16.02;;
789;SDS011;378;48.844;9.156;2023-02-14T10:38:45;30.05;;;14.63;;
789;SDS011;378;48.844;9.156;2023-02-14T10:41:19;29.83;;;15.43;;
789;SDS011;378;48.844;9.156;2023-02-14T10:43:57;33.75;;;15.70;;
789;SDS011;378;48.844;9.156;2023-02-14T10:46:40;33.28;;;16.13;;
789;SDS011;378;48.844;9.156;2023-02-14T10:49:19;30.48;;;15.25;;
789;SDS011;378;48.844;9.156;2023-02-14T10:51:54;30.58;;;15.00;;
789;SDS011;378;48.844;9.156;2023-02-14T10:54:30;31.58;;;15.18;;
789;SDS011;378;48.844;9.156;2023-02-14T10:57:03;29.17;;;15.05;;
789;SDS011;378;48.844;9.156;2023-02-14T10:59:38;27.70;;;14.75;;
789;SDS011;378;48.844;9.156;2023-02-14T11:02:13;29.75;;;14.57;;
789;SDS011;378;48.844;9.156;2023-02-14T11:04:42;29.83;;;15.10;;
789;SDS011;378;48.844;9.156;2023-02-14T11:07:12;31.30;;;15.52;;
789;SDS011;378;48.844;9.156;2023-02-14T11:09:40;29.58;;;14.18;;
789;SDS011;378;48.844;9.156;2023-02-14T11:12:07;31.42;;;14.95;;
789;SDS011;378;48.844;9.156;2023-02-14T11:14:34;31.85;;;15.70;;
789;SDS011;378;48.844;9.156;2023-02-14T11:17:26;29.63;;;15.38;;
789;SDS011;378;48.844;9.156;2023-02-14T11:19:56;25.02;;;13.40;;
789;SDS011;378;48.844;9.156;2023-02-14T11:22:31;29.75;;;14.25;;
789;SDS011;378;48.844;9.156;2023-02-14T11:25:03;30.80;;;14.75;;
789;SDS011;378;48.844;9.156;2023-02-14T11:27:31;44.80;;;16.63;;
789;SDS011;378;48.844;9.156;2023-02-14T11:29:58;29.77;;;14.77;;
789;SDS011;378;48.844;9.156;2023-02-14T11:32:27;34.13;;;15.00;;
789;SDS011;378;48.844;9.156;2023-02-14T11:34:58;27.30;;;13.65;;
789;SDS011;378;48.844;9.156;2023-02-14T11:37:27;32.95;;;15.50;;
789;SDS011;378;48.844;9.156;2023-02-14T11:39:58;31.85;;;15.20;;
789;SDS011;378;48.844;9.156;2023-02-14T11:42:34;28.90;;;14.15;;
789;SDS011;378;48.844;9.156;2023-02-14T11:45:06;32.67;;;15.52;;
789;SDS011;378;48.844;9.156;2023-02-14T11:47:52;30.83;;;14.73;;
789;SDS011;378;48.844;9.156;2023-02-14T11:50:34;29.55;;;14.45;;
789;SDS011;378;48.844;9.156;2023-02-14T11:53:02;32.88;;;13.98;;
789;SDS011;378;48.844;9.156;2023-02-14T11:55:31;30.45;;;14.32;;
789;SDS011;378;48.844;9.156;2023-02-14T11:57:59;29.40;;;15.00;;
789;SDS011;378;48.844;9.156;2023-02-14T12:00:28;28.67;;;14.30;;
789;SDS011;378;48.844;9.156;2023-02-14T12:02:55;31.00;;;14.48;;
789;SDS011;378;48.844;9.156;2023-02-14T12:05:25;36.47;;;14.50;;
789;SDS011;378;48.844;9.156;2023-02-14T12:07:55;32.20;;;14.70;;
789;SDS011;378;48.844;9.156;2023-02-14T12:10:25;28.83;;;14.05;;
789;SDS011;378;48.844;9.156;2023-02-14T12:12:59;31.83;;;14.05;;
789;SDS011;378;48.844;9.156;2023-02-14T12:15:29;28.05;;;14.13;;
789;SDS011;378;48.844;9.156;2023-02-14T12:18:15;27.98;;;14.20;;
789;SDS011;378;48.844;9.156;2023-02-14T12:20:52;26.85;;;13.80;;
789;SDS011;378;48.844;9.156;2023-02-14T12:23:23;28.05;;;13.68;;
789;SDS011;378;48.844;9.156;2023-02-14T12:25:55;30.83;;;14.85;;
789;SDS011;378;48.844;9.156;2023-02-14T12:28:30;29.23;;;13.75;;
789;SDS011;378;48.844;9.156;2023-02-14T12:31:07;28.27;;;14.02;;
789;SDS011;378;48.844;9.156;2023-02-14T12:33:35;28.73;;;15.00;;
789;SDS011;378;48.844;9.156;2023-02-14T12:36:06;30.05;;;14.63;;
789;SDS011;378;48.844;9.156;2023-02-14T12:38:40;29.77;;;15.38;;
789;SDS011;378;48.844;9.156;2023-02-14T12:41:18;33.63;;;14.95;;
789;SDS011;378;48.844;9.156;2023-02-14T12:43:58;32.30;;;15.30;;
789;SDS011;378;48.844;9.156;2023-02-14T12:46:35;33.10;;;15.02;;
789;SDS011;378;48.844;9.156;2023-02-14T12:49:26;29.42;;;15.30;;
789;SDS011;378;48.844;9.156;2023-02-14T12:52:08;26.77;;;14.05;;
789;SDS011;378;48.844;9.156;2023-02-14T12:54:54;29.30;;;14.73;;
789;SDS011;378;48.844;9.156;2023-02-14T12:57:33;27.98;;;15.38;;
789;SDS011;378;48.844;9.156;2023-02-14T13:00:15;27.88;;;14.55;;
789;SDS011;378;48.844;9.156;2023-02-14T13:05:52;29.30;;;15.27;;
789;SDS011;378;48.844;9.156;2023-02-14T13:08:31;31.35;;;14.95;;
789;SDS011;378;48.844;9.156;2023-02-14T13:11:10;30.90;;;15.38;;
789;SDS011;378;48.844;9.156;2023-02-14T13:13:50;32.35;;;15.55;;
789;SDS011;378;48.844;9.156;2023-02-14T13:16:30;30.48;;;15.30;;
789;SDS011;378;48.844;9.156;2023-02-14T13:19:03;31.08;;;15.40;;
789;SDS011;378;48.844;9.156;2023-02-14T13:21:34;32.33;;;15.30;;
789;SDS011;378;48.844;9.156;2023-02-14T13:24:07;29.45;;;15.88;;
789;SDS011;378;48.844;9.156;2023-02-14T13:26:40;32.25;;;15.50;;
789;SDS011;378;48.844;9.156;2023-02-14T13:29:10;29.73;;;15.27;;
789;SDS011;378;48.844;9.156;2023-02-14T13:31:42;32.17;;;15.57;;
789;SDS011;378;48.844;9.156;2023-02-14T13:34:13;28.45;;;15.52;;
789;SDS011;378;48.844;9.156;2023-02-14T13:36:47;30.42;;;15.18;;
789;SDS011;378;48.844;9.156;2023-02-14T13:39:16;31.90;;;15.80;;
789;SDS011;378;48.844;9.156;2023-02-14T13:41:47;32.75;;;15.48;;
789;SDS011;378;48.844;9.156;2023-02-14T13:44:23;31.88;;;16.02;;
789;SDS011;378;48.844;9.156;2023-02-14T13:47:14;30.70;;;16.10;;
789;SDS011;378;48.844;9.156;2023-02-14T13:49:45;36.60;;;15.15;;
789;SDS011;378;48.844;9.156;2023-02-14T13:55:06;28.10;;;14.98;;
789;SDS011;378;48.844;9.156;2023-02-14T13:57:39;33.22;;;16.80;;
789;SDS011;378;48.844;9.156;2023-02-14T14:03:10;33.22;;;16.55;;
789;SDS011;378;48.844;9.156;2023-02-14T14:08:36;28.17;;;15.10;;
789;SDS011;378;48.844;9.156;2023-02-14T14:11:05;29.67;;;15.43;;
789;SDS011;378;48.844;9.156;2023-02-14T14:13:55;29.55;;;16.15;;
789;SDS011;378;48.844;9.156;2023-02-14T14:16:26;31.23;;;16.00;;
789;SDS011;378;48.844;9.156;2023-02-14T14:18:57;31.20;;;15.93;;
789;SDS011;378;48.844;9.156;2023-02-14T14:21:26;33.08;;;16.48;;
789;SDS011;378;48.844;9.156;2023-02-14T14:24:12;34.80;;;16.40;;
789;SDS011;378;48.844;9.156;2023-02-14T14:26:44;32.00;;;16.80;;
789;SDS011;378;48.844;9.156;2023-02-14T14:29:15;31.00;;;16.38;;
789;SDS011;378;48.844;9.156;2023-02-14T14:31:45;35.40;;;17.50;;
789;SDS011;378;48.844;9.156;2023-02-14T14:34:17;35.60;;;16.35;;
789;SDS011;378;48.844;9.156;2023-02-14T14:36:45;32.00;;;15.68;;
789;SDS011;378;48.844;9.156;2023-02-14T14:39:14;31.65;;;16.42;;
789;SDS011;378;48.844;9.156;2023-02-14T14:41:51;31.13;;;16.15;;
789;SDS011;378;48.844;9.156;2023-02-14T14:44:18;32.28;;;16.90;;
789;SDS011;378;48.844;9.156;2023-02-14T14:46:45;38.47;;;16.85;;
789;SDS011;378;48.844;9.156;2023-02-14T14:49:12;32.88;;;16.77;;
789;SDS011;378;48.844;9.156;2023-02-14T14:51:45;32.03;;;16.23;;
789;SDS011;378;48.844;9.156;2023-02-14T14:54:14;34.10;;;16.63;;
789;SDS011;378;48.844;9.156;2023-02-14T14:56:45;29.17;;;15.93;;
789;SDS011;378;48.844;9.156;2023-02-14T14:59:17;30.50;;;16.50;;
789;SDS011;378;48.844;9.156;2023-02-14T15:01:51;32.28;;;16.55;;
789;SDS011;378;48.844;9.156;2023-02-14T15:04:24;32.75;;;16.13;;
789;SDS011;378;48.844;9.156;2023-02-14T15:06:53;31.02;;;16.73;;
789;SDS011;378;48.844;9.156;2023-02-14T15:09:22;34.35;;;16.08;;
789;SDS011;378;48.844;9.156;2023-02-14T15:11:54;32.65;;;16.92;;
789;SDS011;378;48.844;9.156;2023-02-14T15:14:42;32.22;;;16.63;;
789;SDS011;378;48.844;9.156;2023-02-14T15:17:18;32.35;;;16.70;;
789;SDS011;378;48.844;9.156;2023-02-14T15:19:48;32.25;;;17.05;;
789;SDS011;378;48.844;9.156;2023-02-14T15:22:20;29.15;;;15.75;;
789;SDS011;378;48.844;9.156;2023-02-14T15:24:50;32.90;;;16.02;;
789;SDS011;378;48.844;9.156;2023-02-14T15:27:18;35.78;;;16.35;;
789;SDS011;378;48.844;9.156;2023-02-14T15:29:54;32.85;;;16.92;;
789;SDS011;378;48.844;9.156;2023-02-14T15:32:22;35.67;;;16.88;;
789;SDS011;378;48.844;9.156;2023-02-14T15:34:52;31.20;;;16.98;;
789;SDS011;378;48.844;9.156;2023-02-14T15:37:21;30.73;;;16.40;;
789;SDS011;378;48.844;9.156;2023-02-14T15:39:50;32.47;;;15.77;;
789;SDS011;378;48.844;9.156;2023-02-14T15:42:20;35.15;;;16.63;;
789;SDS011;378;48.844;9.156;2023-02-14T15:47:43;33.60;;;16.20;;
789;SDS011;378;48.844;9.156;2023-02-14T15:50:14;31.98;;;16.77;;
789;SDS011;378;48.844;9.156;2023-02-14T15:52:43;30.92;;;16.20;;
789;SDS011;378;48.844;9.156;2023-02-14T15:55:11;34.50;;;17.35;;
789;SDS011;378;48.844;9.156;2023-02-14T15:57:42;34.28;;;17.13;;
789;SDS011;378;48.844;9.156;2023-02-14T16:00:15;31.17;;;16.13;;